sensor_id;sensor_type;location;lat;lon;timestamp;temperature;humidity
5134;DHT22;2585;48.696;10.066;2024-02-14T00:00:18;-0.10;86.40
5134;DHT22;2585;48.696;10.066;2024-02-14T00:02:46;-0.10;86.30
5134;DHT22;2585;48.696;10.066;2024-02-14T00:05:16;-0.20;86.30
5134;DHT22;2585;48.696;10.066;2024-02-14T00:07:43;-0.20;86.60
5134;DHT22;2585;48.696;10.066;2024-02-14T00:10:10;-0.30;86.90
5134;DHT22;2585;48.696;10.066;2024-02-14T00:12:37;-0.30;86.80
5134;DHT22;2585;48.696;10.066;2024-02-14T00:15:05;-0.30;87.10
5134;DHT22;2585;48.696;10.066;2024-02-14T00:17:35;-0.50;86.80
5134;DHT22;2585;48.696;10.066;2024-02-14T00:20:03;-0.40;87.40
5134;DHT22;2585;48.696;10.066;2024-02-14T00:22:31;-0.50;87.70
5134;DHT22;2585;48.696;10.066;2024-02-14T00:24:58;-0.50;87.90
5134;DHT22;2585;48.696;10.066;2024-02-14T00:27:24;-0.40;88.60
5134;DHT22;2585;48.696;10.066;2024-02-14T00:29:53;-0.40;89.00
5134;DHT22;2585;48.696;10.066;2024-02-14T00:32:21;-0.40;89.10
5134;DHT22;2585;48.696;10.066;2024-02-14T00:34:48;-0.50;89.00
5134;DHT22;2585;48.696;10.066;2024-02-14T00:37:18;-0.50;88.90
5134;DHT22;2585;48.696;10.066;2024-02-14T00:39:45;-0.50;89.20
5134;DHT22;2585;48.696;10.066;2024-02-14T00:42:12;-0.60;89.10
5134;DHT22;2585;48.696;10.066;2024-02-14T00:44:38;-0.60;89.00
5134;DHT22;2585;48.696;10.066;2024-02-14T00:47:05;-0.60;89.00
5134;DHT22;2585;48.696;10.066;2024-02-14T00:49:35;-0.60;89.10
5134;DHT22;2585;48.696;10.066;2024-02-14T00:52:03;-0.60;89.00
5134;DHT22;2585;48.696;10.066;2024-02-14T00:54:30;-0.70;88.70
5134;DHT22;2585;48.696;10.066;2024-02-14T00:56:56;-0.70;88.50
5134;DHT22;2585;48.696;10.066;2024-02-14T00:59:23;-0.70;88.70
5134;DHT22;2585;48.696;10.066;2024-02-14T01:01:51;-0.70;89.00
5134;DHT22;2585;48.696;10.066;2024-02-14T01:04:18;-0.70;89.10
5134;DHT22;2585;48.696;10.066;2024-02-14T01:06:45;-0.70;89.50
5134;DHT22;2585;48.696;10.066;2024-02-14T01:09:12;-0.70;89.50
5134;DHT22;2585;48.696;10.066;2024-02-14T01:11:39;-0.70;89.70
5134;DHT22;2585;48.696;10.066;2024-02-14T01:14:06;-0.70;89.90
5134;DHT22;2585;48.696;10.066;2024-02-14T01:16:32;-0.60;90.00
5134;DHT22;2585;48.696;10.066;2024-02-14T01:18:59;-0.60;90.10
5134;DHT22;2585;48.696;10.066;2024-02-14T01:21:27;-0.60;90.10
5134;DHT22;2585;48.696;10.066;2024-02-14T01:23:53;-0.70;90.10
5134;DHT22;2585;48.696;10.066;2024-02-14T01:26:20;-0.80;90.10
5134;DHT22;2585;48.696;10.066;2024-02-14T01:28:47;-0.80;90.30
5134;DHT22;2585;48.696;10.066;2024-02-14T01:31:15;-0.80;90.30
5134;DHT22;2585;48.696;10.066;2024-02-14T01:33:42;-0.80;90.40
5134;DHT22;2585;48.696;10.066;2024-02-14T01:36:09;-0.80;90.40
5134;DHT22;2585;48.696;10.066;2024-02-14T01:38:36;-0.80;90.40
5134;DHT22;2585;48.696;10.066;2024-02-14T01:41:03;-0.80;90.40
5134;DHT22;2585;48.696;10.066;2024-02-14T01:43:30;-0.90;90.40
5134;DHT22;2585;48.696;10.066;2024-02-14T01:46:04;-0.90;90.40
5134;DHT22;2585;48.696;10.066;2024-02-14T01:48:32;-0.90;90.40
5134;DHT22;2585;48.696;10.066;2024-02-14T01:51:01;-0.90;90.40
5134;DHT22;2585;48.696;10.066;2024-02-14T01:53:30;-0.90;90.40
5134;DHT22;2585;48.696;10.066;2024-02-14T01:55:58;-0.90;90.40
5134;DHT22;2585;48.696;10.066;2024-02-14T01:58:27;-0.90;90.40
5134;DHT22;2585;48.696;10.066;2024-02-14T02:00:54;-0.90;90.40
5134;DHT22;2585;48.696;10.066;2024-02-14T02:03:25;-0.80;90.50
5134;DHT22;2585;48.696;10.066;2024-02-14T02:05:52;-0.80;90.60
5134;DHT22;2585;48.696;10.066;2024-02-14T02:08:21;-0.80;90.70
5134;DHT22;2585;48.696;10.066;2024-02-14T02:10:48;-0.80;90.70
5134;DHT22;2585;48.696;10.066;2024-02-14T02:13:15;-0.80;90.70
5134;DHT22;2585;48.696;10.066;2024-02-14T02:15:42;-0.80;90.80
5134;DHT22;2585;48.696;10.066;2024-02-14T02:18:12;-0.80;90.90
5134;DHT22;2585;48.696;10.066;2024-02-14T02:20:39;-0.90;91.00
5134;DHT22;2585;48.696;10.066;2024-02-14T02:23:12;-0.90;91.00
5134;DHT22;2585;48.696;10.066;2024-02-14T02:25:43;-0.90;91.10
5134;DHT22;2585;48.696;10.066;2024-02-14T02:28:10;-0.80;91.20
5134;DHT22;2585;48.696;10.066;2024-02-14T02:30:37;-0.80;91.30
5134;DHT22;2585;48.696;10.066;2024-02-14T02:33:05;-0.80;91.40
5134;DHT22;2585;48.696;10.066;2024-02-14T02:35:33;-0.80;91.50
5134;DHT22;2585;48.696;10.066;2024-02-14T02:38:01;-0.80;91.60
5134;DHT22;2585;48.696;10.066;2024-02-14T02:40:27;-0.80;91.60
5134;DHT22;2585;48.696;10.066;2024-02-14T02:42:54;-0.80;91.70
5134;DHT22;2585;48.696;10.066;2024-02-14T02:45:21;-0.70;91.80
5134;DHT22;2585;48.696;10.066;2024-02-14T02:47:48;-0.70;91.90
5134;DHT22;2585;48.696;10.066;2024-02-14T02:50:18;-0.70;92.00
5134;DHT22;2585;48.696;10.066;2024-02-14T02:52:46;-0.80;92.00
5134;DHT22;2585;48.696;10.066;2024-02-14T02:55:13;-0.70;92.10
5134;DHT22;2585;48.696;10.066;2024-02-14T02:57:41;-0.70;92.10
5134;DHT22;2585;48.696;10.066;2024-02-14T03:00:10;-0.60;92.20
5134;DHT22;2585;48.696;10.066;2024-02-14T03:02:39;-0.60;92.30
5134;DHT22;2585;48.696;10.066;2024-02-14T03:05:08;-0.60;92.30
5134;DHT22;2585;48.696;10.066;2024-02-14T03:07:37;-0.50;92.40
5134;DHT22;2585;48.696;10.066;2024-02-14T03:10:05;-0.50;92.50
5134;DHT22;2585;48.696;10.066;2024-02-14T03:12:32;-0.40;92.60
5134;DHT22;2585;48.696;10.066;2024-02-14T03:15:03;-0.40;92.70
5134;DHT22;2585;48.696;10.066;2024-02-14T03:17:31;-0.30;92.80
5134;DHT22;2585;48.696;10.066;2024-02-14T03:19:58;-0.30;92.80
5134;DHT22;2585;48.696;10.066;2024-02-14T03:22:25;-0.30;92.90
5134;DHT22;2585;48.696;10.066;2024-02-14T03:24:52;-0.30;92.90
5134;DHT22;2585;48.696;10.066;2024-02-14T03:27:19;-0.40;92.90
5134;DHT22;2585;48.696;10.066;2024-02-14T03:29:46;-0.40;92.90
5134;DHT22;2585;48.696;10.066;2024-02-14T03:32:14;-0.40;92.90
5134;DHT22;2585;48.696;10.066;2024-02-14T03:34:41;-0.40;93.00
5134;DHT22;2585;48.696;10.066;2024-02-14T03:37:08;-0.40;93.00
5134;DHT22;2585;48.696;10.066;2024-02-14T03:39:35;-0.40;93.00
5134;DHT22;2585;48.696;10.066;2024-02-14T03:42:03;-0.30;93.10
5134;DHT22;2585;48.696;10.066;2024-02-14T03:44:34;-0.30;93.10
5134;DHT22;2585;48.696;10.066;2024-02-14T03:47:01;-0.30;93.20
5134;DHT22;2585;48.696;10.066;2024-02-14T03:49:28;-0.30;93.20
5134;DHT22;2585;48.696;10.066;2024-02-14T03:51:55;-0.30;93.20
5134;DHT22;2585;48.696;10.066;2024-02-14T03:54:23;-0.30;93.30
5134;DHT22;2585;48.696;10.066;2024-02-14T03:56:50;-0.30;93.30
5134;DHT22;2585;48.696;10.066;2024-02-14T03:59:18;-0.20;93.30
5134;DHT22;2585;48.696;10.066;2024-02-14T04:01:51;-0.20;93.40
5134;DHT22;2585;48.696;10.066;2024-02-14T04:04:19;-0.20;93.40
5134;DHT22;2585;48.696;10.066;2024-02-14T04:06:47;-0.20;93.50
5134;DHT22;2585;48.696;10.066;2024-02-14T04:09:14;-0.20;93.50
5134;DHT22;2585;48.696;10.066;2024-02-14T04:11:41;-0.10;93.60
5134;DHT22;2585;48.696;10.066;2024-02-14T04:14:08;-0.10;93.60
5134;DHT22;2585;48.696;10.066;2024-02-14T04:16:35;-0.10;93.60
5134;DHT22;2585;48.696;10.066;2024-02-14T04:19:03;-0.10;93.60
5134;DHT22;2585;48.696;10.066;2024-02-14T04:21:31;-0.10;93.60
5134;DHT22;2585;48.696;10.066;2024-02-14T04:23:58;0.00;93.60
5134;DHT22;2585;48.696;10.066;2024-02-14T04:26:25;0.00;93.70
5134;DHT22;2585;48.696;10.066;2024-02-14T04:28:53;0.00;93.70
5134;DHT22;2585;48.696;10.066;2024-02-14T04:31:20;0.10;93.70
5134;DHT22;2585;48.696;10.066;2024-02-14T04:33:47;0.00;93.70
5134;DHT22;2585;48.696;10.066;2024-02-14T04:36:19;0.00;93.70
5134;DHT22;2585;48.696;10.066;2024-02-14T04:38:47;0.00;93.70
5134;DHT22;2585;48.696;10.066;2024-02-14T04:41:15;0.10;93.80
5134;DHT22;2585;48.696;10.066;2024-02-14T04:43:42;0.10;93.80
5134;DHT22;2585;48.696;10.066;2024-02-14T04:46:09;0.10;93.80
5134;DHT22;2585;48.696;10.066;2024-02-14T04:48:36;0.20;93.80
5134;DHT22;2585;48.696;10.066;2024-02-14T04:51:04;0.10;93.80
5134;DHT22;2585;48.696;10.066;2024-02-14T04:53:31;0.20;93.90
5134;DHT22;2585;48.696;10.066;2024-02-14T04:55:59;0.20;93.90
5134;DHT22;2585;48.696;10.066;2024-02-14T04:58:26;0.20;93.90
5134;DHT22;2585;48.696;10.066;2024-02-14T05:00:53;0.20;93.90
5134;DHT22;2585;48.696;10.066;2024-02-14T05:03:21;0.20;93.90
5134;DHT22;2585;48.696;10.066;2024-02-14T05:05:50;0.30;93.90
5134;DHT22;2585;48.696;10.066;2024-02-14T05:08:17;0.30;94.00
5134;DHT22;2585;48.696;10.066;2024-02-14T05:10:44;0.30;94.00
5134;DHT22;2585;48.696;10.066;2024-02-14T05:13:12;0.30;94.00
5134;DHT22;2585;48.696;10.066;2024-02-14T05:15:39;0.40;94.00
5134;DHT22;2585;48.696;10.066;2024-02-14T05:18:06;0.30;94.00
5134;DHT22;2585;48.696;10.066;2024-02-14T05:20:34;0.30;94.00
5134;DHT22;2585;48.696;10.066;2024-02-14T05:23:01;0.30;94.00
5134;DHT22;2585;48.696;10.066;2024-02-14T05:25:27;0.30;94.00
5134;DHT22;2585;48.696;10.066;2024-02-14T05:27:56;0.30;94.00
5134;DHT22;2585;48.696;10.066;2024-02-14T05:30:23;0.40;94.00
5134;DHT22;2585;48.696;10.066;2024-02-14T05:32:51;0.40;94.00
5134;DHT22;2585;48.696;10.066;2024-02-14T05:35:19;0.40;94.00
5134;DHT22;2585;48.696;10.066;2024-02-14T05:37:46;0.40;94.10
5134;DHT22;2585;48.696;10.066;2024-02-14T05:40:16;0.40;94.10
5134;DHT22;2585;48.696;10.066;2024-02-14T05:42:43;0.40;94.10
5134;DHT22;2585;48.696;10.066;2024-02-14T05:45:13;0.40;94.10
5134;DHT22;2585;48.696;10.066;2024-02-14T05:47:40;0.40;94.10
5134;DHT22;2585;48.696;10.066;2024-02-14T05:50:07;0.40;94.10
5134;DHT22;2585;48.696;10.066;2024-02-14T05:52:35;0.40;94.10
5134;DHT22;2585;48.696;10.066;2024-02-14T05:55:02;0.40;94.10
5134;DHT22;2585;48.696;10.066;2024-02-14T05:57:30;0.40;94.10
5134;DHT22;2585;48.696;10.066;2024-02-14T05:59:57;0.50;94.10
5134;DHT22;2585;48.696;10.066;2024-02-14T06:02:23;0.40;94.10
5134;DHT22;2585;48.696;10.066;2024-02-14T06:04:50;0.40;94.10
5134;DHT22;2585;48.696;10.066;2024-02-14T06:07:17;0.50;94.10
5134;DHT22;2585;48.696;10.066;2024-02-14T06:09:44;0.50;94.10
5134;DHT22;2585;48.696;10.066;2024-02-14T06:12:12;0.50;94.10
5134;DHT22;2585;48.696;10.066;2024-02-14T06:14:39;0.50;94.20
5134;DHT22;2585;48.696;10.066;2024-02-14T06:17:06;0.60;94.20
5134;DHT22;2585;48.696;10.066;2024-02-14T06:19:32;0.50;94.20
5134;DHT22;2585;48.696;10.066;2024-02-14T06:22:06;0.50;94.20
5134;DHT22;2585;48.696;10.066;2024-02-14T06:24:33;0.60;94.20
5134;DHT22;2585;48.696;10.066;2024-02-14T06:27:00;0.60;94.20
5134;DHT22;2585;48.696;10.066;2024-02-14T06:29:26;0.50;94.20
5134;DHT22;2585;48.696;10.066;2024-02-14T06:31:53;0.60;94.20
5134;DHT22;2585;48.696;10.066;2024-02-14T06:34:20;0.50;94.20
5134;DHT22;2585;48.696;10.066;2024-02-14T06:36:48;0.60;94.20
5134;DHT22;2585;48.696;10.066;2024-02-14T06:39:14;0.50;94.20
5134;DHT22;2585;48.696;10.066;2024-02-14T06:41:41;0.50;94.20
5134;DHT22;2585;48.696;10.066;2024-02-14T06:44:10;0.60;94.20
5134;DHT22;2585;48.696;10.066;2024-02-14T06:46:37;0.60;94.20
5134;DHT22;2585;48.696;10.066;2024-02-14T06:49:04;0.60;94.20
5134;DHT22;2585;48.696;10.066;2024-02-14T06:51:32;0.60;94.20
5134;DHT22;2585;48.696;10.066;2024-02-14T06:53:59;0.60;94.20
5134;DHT22;2585;48.696;10.066;2024-02-14T06:56:25;0.70;94.20
5134;DHT22;2585;48.696;10.066;2024-02-14T06:58:52;0.70;94.20
5134;DHT22;2585;48.696;10.066;2024-02-14T07:01:26;0.70;94.20
5134;DHT22;2585;48.696;10.066;2024-02-14T07:03:56;0.60;94.20
5134;DHT22;2585;48.696;10.066;2024-02-14T07:06:23;0.70;94.20
5134;DHT22;2585;48.696;10.066;2024-02-14T07:08:50;0.70;94.30
5134;DHT22;2585;48.696;10.066;2024-02-14T07:11:17;0.70;94.30
5134;DHT22;2585;48.696;10.066;2024-02-14T07:13:44;0.70;94.30
5134;DHT22;2585;48.696;10.066;2024-02-14T07:16:11;0.70;94.30
5134;DHT22;2585;48.696;10.066;2024-02-14T07:18:38;0.80;94.30
5134;DHT22;2585;48.696;10.066;2024-02-14T07:21:05;0.90;94.30
5134;DHT22;2585;48.696;10.066;2024-02-14T07:23:33;0.90;94.30
5134;DHT22;2585;48.696;10.066;2024-02-14T07:26:00;0.90;94.30
5134;DHT22;2585;48.696;10.066;2024-02-14T07:28:28;0.90;94.30
5134;DHT22;2585;48.696;10.066;2024-02-14T07:30:55;1.00;94.40
5134;DHT22;2585;48.696;10.066;2024-02-14T07:33:22;1.10;94.40
5134;DHT22;2585;48.696;10.066;2024-02-14T07:35:49;1.10;94.40
5134;DHT22;2585;48.696;10.066;2024-02-14T07:38:16;1.20;94.40
5134;DHT22;2585;48.696;10.066;2024-02-14T07:40:44;1.20;94.40
5134;DHT22;2585;48.696;10.066;2024-02-14T07:43:11;1.30;94.50
5134;DHT22;2585;48.696;10.066;2024-02-14T07:45:37;1.40;94.50
5134;DHT22;2585;48.696;10.066;2024-02-14T07:48:05;1.40;94.50
5134;DHT22;2585;48.696;10.066;2024-02-14T07:50:32;1.50;94.50
5134;DHT22;2585;48.696;10.066;2024-02-14T07:52:59;1.50;94.50
5134;DHT22;2585;48.696;10.066;2024-02-14T07:55:26;1.70;94.60
5134;DHT22;2585;48.696;10.066;2024-02-14T07:57:53;1.70;94.60
5134;DHT22;2585;48.696;10.066;2024-02-14T08:00:20;1.70;94.60
5134;DHT22;2585;48.696;10.066;2024-02-14T08:02:49;1.80;94.60
5134;DHT22;2585;48.696;10.066;2024-02-14T08:05:17;1.80;94.60
5134;DHT22;2585;48.696;10.066;2024-02-14T08:07:47;1.90;94.60
5134;DHT22;2585;48.696;10.066;2024-02-14T08:10:15;1.90;94.60
5134;DHT22;2585;48.696;10.066;2024-02-14T08:12:42;1.90;94.60
5134;DHT22;2585;48.696;10.066;2024-02-14T08:15:09;1.80;94.60
5134;DHT22;2585;48.696;10.066;2024-02-14T08:17:36;1.80;94.60
5134;DHT22;2585;48.696;10.066;2024-02-14T08:20:04;1.90;94.60
5134;DHT22;2585;48.696;10.066;2024-02-14T08:22:31;2.00;94.60
5134;DHT22;2585;48.696;10.066;2024-02-14T08:24:59;2.00;94.60
5134;DHT22;2585;48.696;10.066;2024-02-14T08:27:26;2.00;94.60
5134;DHT22;2585;48.696;10.066;2024-02-14T08:29:54;2.10;94.60
5134;DHT22;2585;48.696;10.066;2024-02-14T08:32:22;2.10;94.60
5134;DHT22;2585;48.696;10.066;2024-02-14T08:34:52;2.20;94.70
5134;DHT22;2585;48.696;10.066;2024-02-14T08:37:19;2.30;94.70
5134;DHT22;2585;48.696;10.066;2024-02-14T08:39:46;2.40;94.70
5134;DHT22;2585;48.696;10.066;2024-02-14T08:42:13;2.50;94.70
5134;DHT22;2585;48.696;10.066;2024-02-14T08:44:40;2.50;94.70
5134;DHT22;2585;48.696;10.066;2024-02-14T08:47:07;2.60;94.80
5134;DHT22;2585;48.696;10.066;2024-02-14T08:49:34;2.70;94.80
5134;DHT22;2585;48.696;10.066;2024-02-14T08:52:01;2.90;94.80
5134;DHT22;2585;48.696;10.066;2024-02-14T08:54:28;3.00;94.80
5134;DHT22;2585;48.696;10.066;2024-02-14T08:56:55;3.20;94.90
5134;DHT22;2585;48.696;10.066;2024-02-14T08:59:25;3.80;95.10
5134;DHT22;2585;48.696;10.066;2024-02-14T09:01:53;4.20;95.20
5134;DHT22;2585;48.696;10.066;2024-02-14T09:04:20;4.60;95.30
5134;DHT22;2585;48.696;10.066;2024-02-14T09:06:46;4.50;95.20
5134;DHT22;2585;48.696;10.066;2024-02-14T09:09:13;4.60;95.20
5134;DHT22;2585;48.696;10.066;2024-02-14T09:11:42;4.60;95.20
5134;DHT22;2585;48.696;10.066;2024-02-14T09:14:09;4.60;95.10
5134;DHT22;2585;48.696;10.066;2024-02-14T09:16:37;4.50;95.10
5134;DHT22;2585;48.696;10.066;2024-02-14T09:19:04;4.60;95.10
5134;DHT22;2585;48.696;10.066;2024-02-14T09:21:34;4.70;95.10
5134;DHT22;2585;48.696;10.066;2024-02-14T09:24:03;4.70;95.10
5134;DHT22;2585;48.696;10.066;2024-02-14T09:26:31;4.80;95.10
5134;DHT22;2585;48.696;10.066;2024-02-14T09:28:58;4.70;95.10
5134;DHT22;2585;48.696;10.066;2024-02-14T09:31:24;4.80;95.10
5134;DHT22;2585;48.696;10.066;2024-02-14T09:33:51;4.90;95.10
5134;DHT22;2585;48.696;10.066;2024-02-14T09:36:24;5.00;95.10
5134;DHT22;2585;48.696;10.066;2024-02-14T09:38:51;5.10;95.10
5134;DHT22;2585;48.696;10.066;2024-02-14T09:41:25;5.20;95.10
5134;DHT22;2585;48.696;10.066;2024-02-14T09:43:56;5.30;95.10
5134;DHT22;2585;48.696;10.066;2024-02-14T09:46:26;5.40;95.10
5134;DHT22;2585;48.696;10.066;2024-02-14T09:48:53;5.40;95.00
5134;DHT22;2585;48.696;10.066;2024-02-14T09:51:21;5.40;95.00
5134;DHT22;2585;48.696;10.066;2024-02-14T09:53:50;5.60;95.00
5134;DHT22;2585;48.696;10.066;2024-02-14T09:56:21;5.80;95.10
5134;DHT22;2585;48.696;10.066;2024-02-14T09:58:51;5.90;95.00
5134;DHT22;2585;48.696;10.066;2024-02-14T10:01:25;6.00;94.90
5134;DHT22;2585;48.696;10.066;2024-02-14T10:03:54;6.10;94.80
5134;DHT22;2585;48.696;10.066;2024-02-14T10:06:21;6.20;90.10
5134;DHT22;2585;48.696;10.066;2024-02-14T10:08:49;6.30;89.90
5134;DHT22;2585;48.696;10.066;2024-02-14T10:11:30;6.50;90.00
5134;DHT22;2585;48.696;10.066;2024-02-14T10:13:58;6.50;89.40
5134;DHT22;2585;48.696;10.066;2024-02-14T10:16:31;6.50;88.70
5134;DHT22;2585;48.696;10.066;2024-02-14T10:18:57;6.70;88.30
5134;DHT22;2585;48.696;10.066;2024-02-14T10:21:25;6.80;88.10
5134;DHT22;2585;48.696;10.066;2024-02-14T10:23:52;6.90;87.50
5134;DHT22;2585;48.696;10.066;2024-02-14T10:26:20;7.00;87.60
5134;DHT22;2585;48.696;10.066;2024-02-14T10:28:47;7.10;87.10
5134;DHT22;2585;48.696;10.066;2024-02-14T10:31:16;7.20;87.90
5134;DHT22;2585;48.696;10.066;2024-02-14T10:33:43;7.40;87.80
5134;DHT22;2585;48.696;10.066;2024-02-14T10:36:12;7.50;87.20
5134;DHT22;2585;48.696;10.066;2024-02-14T10:38:40;7.40;85.60
5134;DHT22;2585;48.696;10.066;2024-02-14T10:41:07;7.50;85.00
5134;DHT22;2585;48.696;10.066;2024-02-14T10:43:37;7.50;84.50
5134;DHT22;2585;48.696;10.066;2024-02-14T10:46:08;7.70;84.10
5134;DHT22;2585;48.696;10.066;2024-02-14T10:48:39;7.80;83.20
5134;DHT22;2585;48.696;10.066;2024-02-14T10:51:08;8.00;82.60
5134;DHT22;2585;48.696;10.066;2024-02-14T10:53:39;8.50;83.80
5134;DHT22;2585;48.696;10.066;2024-02-14T10:56:09;9.20;83.70
5134;DHT22;2585;48.696;10.066;2024-02-14T10:58:36;9.80;79.90
5134;DHT22;2585;48.696;10.066;2024-02-14T11:01:04;10.30;80.00
5134;DHT22;2585;48.696;10.066;2024-02-14T11:03:31;10.40;73.30
5134;DHT22;2585;48.696;10.066;2024-02-14T11:06:02;11.00;74.80
5134;DHT22;2585;48.696;10.066;2024-02-14T11:08:31;11.20;72.00
5134;DHT22;2585;48.696;10.066;2024-02-14T11:11:00;11.60;71.20
5134;DHT22;2585;48.696;10.066;2024-02-14T11:13:28;12.10;70.10
5134;DHT22;2585;48.696;10.066;2024-02-14T11:16:01;12.20;62.70
5134;DHT22;2585;48.696;10.066;2024-02-14T11:18:31;12.20;58.40
5134;DHT22;2585;48.696;10.066;2024-02-14T11:21:15;12.10;1.00
5134;DHT22;2585;48.696;10.066;2024-02-14T11:23:52;12.00;1.00
5134;DHT22;2585;48.696;10.066;2024-02-14T11:26:20;11.70;1.00
5134;DHT22;2585;48.696;10.066;2024-02-14T11:28:49;11.50;1.00
5134;DHT22;2585;48.696;10.066;2024-02-14T11:31:33;11.40;1.00
5134;DHT22;2585;48.696;10.066;2024-02-14T11:34:05;11.40;1.00
5134;DHT22;2585;48.696;10.066;2024-02-14T11:36:32;11.10;1.00
5134;DHT22;2585;48.696;10.066;2024-02-14T11:39:03;11.10;1.00
5134;DHT22;2585;48.696;10.066;2024-02-14T11:41:32;11.20;1.00
5134;DHT22;2585;48.696;10.066;2024-02-14T11:44:03;11.50;1.00
5134;DHT22;2585;48.696;10.066;2024-02-14T11:46:35;12.00;1.00
5134;DHT22;2585;48.696;10.066;2024-02-14T11:49:03;12.40;1.00
5134;DHT22;2585;48.696;10.066;2024-02-14T11:51:34;12.20;1.00
5134;DHT22;2585;48.696;10.066;2024-02-14T11:54:03;12.30;1.00
5134;DHT22;2585;48.696;10.066;2024-02-14T11:56:36;12.50;88.30
5134;DHT22;2585;48.696;10.066;2024-02-14T11:59:05;12.70;85.30
5134;DHT22;2585;48.696;10.066;2024-02-14T12:01:37;12.80;31.20
5134;DHT22;2585;48.696;10.066;2024-02-14T12:04:05;12.50;7.90
5134;DHT22;2585;48.696;10.066;2024-02-14T12:06:36;12.40;1.00
5134;DHT22;2585;48.696;10.066;2024-02-14T12:09:05;12.30;49.00
5134;DHT22;2585;48.696;10.066;2024-02-14T12:11:32;12.20;11.60
5134;DHT22;2585;48.696;10.066;2024-02-14T12:14:06;11.90;51.20
5134;DHT22;2585;48.696;10.066;2024-02-14T12:16:35;11.70;66.30
5134;DHT22;2585;48.696;10.066;2024-02-14T12:19:16;11.70;72.20
5134;DHT22;2585;48.696;10.066;2024-02-14T12:21:44;11.60;60.70
5134;DHT22;2585;48.696;10.066;2024-02-14T12:24:12;11.60;31.70
5134;DHT22;2585;48.696;10.066;2024-02-14T12:26:42;11.50;56.90
5134;DHT22;2585;48.696;10.066;2024-02-14T12:29:12;11.50;65.00
5134;DHT22;2585;48.696;10.066;2024-02-14T12:31:40;11.40;78.10
5134;DHT22;2585;48.696;10.066;2024-02-14T12:34:11;11.30;86.40
5134;DHT22;2585;48.696;10.066;2024-02-14T12:36:38;11.10;73.90
5134;DHT22;2585;48.696;10.066;2024-02-14T12:39:05;11.10;77.00
5134;DHT22;2585;48.696;10.066;2024-02-14T12:41:33;11.10;85.50
5134;DHT22;2585;48.696;10.066;2024-02-14T12:44:02;11.00;78.70
5134;DHT22;2585;48.696;10.066;2024-02-14T12:46:29;10.90;81.00
5134;DHT22;2585;48.696;10.066;2024-02-14T12:48:56;10.90;81.90
5134;DHT22;2585;48.696;10.066;2024-02-14T12:51:23;10.80;79.70
5134;DHT22;2585;48.696;10.066;2024-02-14T12:53:55;10.70;85.10
5134;DHT22;2585;48.696;10.066;2024-02-14T12:56:22;10.90;91.20
5134;DHT22;2585;48.696;10.066;2024-02-14T12:58:50;10.90;83.90
5134;DHT22;2585;48.696;10.066;2024-02-14T13:01:17;10.80;77.50
5134;DHT22;2585;48.696;10.066;2024-02-14T13:03:44;10.80;82.50
5134;DHT22;2585;48.696;10.066;2024-02-14T13:06:12;10.80;87.30
5134;DHT22;2585;48.696;10.066;2024-02-14T13:08:40;10.90;1.00
5134;DHT22;2585;48.696;10.066;2024-02-14T13:11:08;10.90;92.10
5134;DHT22;2585;48.696;10.066;2024-02-14T13:13:35;10.80;88.20
5134;DHT22;2585;48.696;10.066;2024-02-14T13:16:03;10.80;89.80
5134;DHT22;2585;48.696;10.066;2024-02-14T13:18:33;10.90;92.00
5134;DHT22;2585;48.696;10.066;2024-02-14T13:21:00;10.90;90.40
5134;DHT22;2585;48.696;10.066;2024-02-14T13:23:28;11.00;85.40
5134;DHT22;2585;48.696;10.066;2024-02-14T13:25:55;11.00;89.10
5134;DHT22;2585;48.696;10.066;2024-02-14T13:28:21;10.90;84.40
5134;DHT22;2585;48.696;10.066;2024-02-14T13:30:48;10.90;90.00
5134;DHT22;2585;48.696;10.066;2024-02-14T13:33:15;10.90;1.00
5134;DHT22;2585;48.696;10.066;2024-02-14T13:35:42;10.90;91.70
5134;DHT22;2585;48.696;10.066;2024-02-14T13:38:09;10.80;86.40
5134;DHT22;2585;48.696;10.066;2024-02-14T13:40:36;10.70;82.70
5134;DHT22;2585;48.696;10.066;2024-02-14T13:43:03;10.70;81.20
5134;DHT22;2585;48.696;10.066;2024-02-14T13:45:44;10.70;91.30
5134;DHT22;2585;48.696;10.066;2024-02-14T13:48:11;10.70;87.80
5134;DHT22;2585;48.696;10.066;2024-02-14T13:50:38;10.70;1.00
5134;DHT22;2585;48.696;10.066;2024-02-14T13:53:07;10.70;91.00
5134;DHT22;2585;48.696;10.066;2024-02-14T13:55:34;10.90;92.10
5134;DHT22;2585;48.696;10.066;2024-02-14T13:58:01;11.00;90.70
5134;DHT22;2585;48.696;10.066;2024-02-14T14:00:27;11.00;85.40
5134;DHT22;2585;48.696;10.066;2024-02-14T14:02:55;11.00;81.40
5134;DHT22;2585;48.696;10.066;2024-02-14T14:05:22;10.90;76.10
5134;DHT22;2585;48.696;10.066;2024-02-14T14:07:49;11.00;77.30
5134;DHT22;2585;48.696;10.066;2024-02-14T14:10:27;11.30;72.10
5134;DHT22;2585;48.696;10.066;2024-02-14T14:12:55;11.80;65.00
5134;DHT22;2585;48.696;10.066;2024-02-14T14:15:22;11.50;1.00
5134;DHT22;2585;48.696;10.066;2024-02-14T14:17:50;11.40;1.00
5134;DHT22;2585;48.696;10.066;2024-02-14T14:20:18;11.30;1.00
5134;DHT22;2585;48.696;10.066;2024-02-14T14:22:46;11.30;1.00
5134;DHT22;2585;48.696;10.066;2024-02-14T14:25:13;11.10;1.00
5134;DHT22;2585;48.696;10.066;2024-02-14T14:27:40;11.00;4.70
5134;DHT22;2585;48.696;10.066;2024-02-14T14:30:07;11.00;62.00
5134;DHT22;2585;48.696;10.066;2024-02-14T14:32:34;10.90;65.80
5134;DHT22;2585;48.696;10.066;2024-02-14T14:35:01;10.90;67.50
5134;DHT22;2585;48.696;10.066;2024-02-14T14:37:28;10.90;70.40
5134;DHT22;2585;48.696;10.066;2024-02-14T14:39:55;10.90;73.00
5134;DHT22;2585;48.696;10.066;2024-02-14T14:42:23;10.90;68.20
5134;DHT22;2585;48.696;10.066;2024-02-14T14:44:50;10.90;75.80
5134;DHT22;2585;48.696;10.066;2024-02-14T14:47:17;10.90;74.20
5134;DHT22;2585;48.696;10.066;2024-02-14T14:49:44;10.90;73.10
5134;DHT22;2585;48.696;10.066;2024-02-14T14:52:11;10.90;78.30
5134;DHT22;2585;48.696;10.066;2024-02-14T14:54:38;10.90;78.70
5134;DHT22;2585;48.696;10.066;2024-02-14T14:57:05;10.90;78.40
5134;DHT22;2585;48.696;10.066;2024-02-14T14:59:38;11.00;76.20
5134;DHT22;2585;48.696;10.066;2024-02-14T15:02:05;11.00;75.70
5134;DHT22;2585;48.696;10.066;2024-02-14T15:04:32;11.00;72.10
5134;DHT22;2585;48.696;10.066;2024-02-14T15:07:02;11.00;76.90
5134;DHT22;2585;48.696;10.066;2024-02-14T15:09:29;11.10;70.50
5134;DHT22;2585;48.696;10.066;2024-02-14T15:11:58;11.10;68.60
5134;DHT22;2585;48.696;10.066;2024-02-14T15:14:25;11.10;62.00
5134;DHT22;2585;48.696;10.066;2024-02-14T15:16:53;11.10;67.70
5134;DHT22;2585;48.696;10.066;2024-02-14T15:19:20;11.10;80.40
5134;DHT22;2585;48.696;10.066;2024-02-14T15:21:48;11.10;77.80
5134;DHT22;2585;48.696;10.066;2024-02-14T15:24:16;11.20;72.10
5134;DHT22;2585;48.696;10.066;2024-02-14T15:26:49;11.10;71.30
5134;DHT22;2585;48.696;10.066;2024-02-14T15:29:20;11.10;67.30
5134;DHT22;2585;48.696;10.066;2024-02-14T15:32:06;11.10;69.60
5134;DHT22;2585;48.696;10.066;2024-02-14T15:34:51;11.10;72.90
5134;DHT22;2585;48.696;10.066;2024-02-14T15:37:19;11.10;79.50
5134;DHT22;2585;48.696;10.066;2024-02-14T15:39:45;11.10;84.00
5134;DHT22;2585;48.696;10.066;2024-02-14T15:42:12;11.10;80.00
5134;DHT22;2585;48.696;10.066;2024-02-14T15:44:39;11.10;76.90
5134;DHT22;2585;48.696;10.066;2024-02-14T15:47:06;11.10;71.70
5134;DHT22;2585;48.696;10.066;2024-02-14T15:49:34;11.10;69.40
5134;DHT22;2585;48.696;10.066;2024-02-14T15:52:02;11.10;77.20
5134;DHT22;2585;48.696;10.066;2024-02-14T15:54:30;11.00;80.80
5134;DHT22;2585;48.696;10.066;2024-02-14T15:56:57;10.90;83.80